Aérodrome :
LOGIN :

S'inscrire | Disclaimer

   EN    FR    IT 

 










Légende :    VFR   VFR Marginal   IFR   IFR Intensif   IFR Très Intensif
Visi : 
Plafond : 
>= 8 km
>= 3000ft
5 à 8 km
1000 à 3000 ft
1500m à 5 km
500 à 1000 ft
800 à 1500m
200 à 500 ft
< 800m
< 200 ft
Symboles :   Orages  Brouillard  Fortes neiges  Fortes précipitations  Vent > 20 kt
SIGMETs :   Divers  Orages  Givrage  Turbulence  Onde Orograph.  Cendres Volcan.






- Altitude de l'aérodrome : 527 ft
- Code IATA : DBV


LDDU - Dubrovnik

DERNIER METAR :
  • 270030Z 30005KT 250V030 CAVOK 09/06 Q1016

METARs EXPIRÉS :
  • 270000Z 08005KT CAVOK 10/06 Q1016
  • 262330Z 13007KT CAVOK 09/07 Q1016
  • 262300Z 10006KT 9999 SCT068 09/07 Q1016
  • 262230Z 09005KT 040V140 CAVOK 11/06 Q1016 NOSIG

TAF TAF LDDU
Valide du 27 à 00h jusqu'au 28 à 00h UTC


262325Z 2700/2800 10006KT 9999 SCT030 TX13/2712Z TN07/2705Z
BECMG 2709/2711 30008KT
BECMG 2716/2718 02005KT
PROB30
TEMPO 2721/2800 1500 PRFG



MET'MAP, la Météo Aéronautique d'un coup d'oeil ! - Copyright ORBIFLY Décembre 2007 - Disclaimer

ORBIFLY MET'MAP TEAM :

Programmation & Développement : Alexandra Zaïnal
Sur une idée originale de : Baudouin d'Aumeries
Assistance à la programmation : Marc-Olivier Méhu
Soutien technique & logistique : Manuel Goepfert

Contact : metmap@orbifly.com




SOURCES & CREDITS :

   NOAA